Time;durP1;ratioP1;P1;durP2;ratioP2;P2;SDS_P1;SDS_P2;PMS_P1;PMS_P2;Temp;Humidity;BMP_temperature;BMP_pressure;BME280_temperature;BME280_humidity;BME280_pressure;Samples;Min_cycle;Max_cycle;Signal;HPM_P1;HPM_P2
2021/11/11 00:00:29;;;;;;;16.57;11.23;;;8.10;99.90;;;;;;5044572;28;20486;-81
2021/11/11 00:02:59;;;;;;;21.65;12.65;;;8.10;99.90;;;;;;5038145;28;20451;-79
2021/11/11 00:05:29;;;;;;;19.63;12.50;;;8.00;99.90;;;;;;5043250;28;20206;-78
2021/11/11 00:07:58;;;;;;;21.87;10.17;;;7.90;99.90;;;;;;5051494;28;20480;-77
2021/11/11 00:10:28;;;;;;;16.20;12.43;;;8.00;99.90;;;;;;5047379;28;20495;-78
2021/11/11 00:12:59;;;;;;;17.33;10.03;;;8.00;99.90;;;;;;5037045;28;21054;-78
2021/11/11 00:15:28;;;;;;;13.63;9.77;;;7.90;99.90;;;;;;5040180;28;20523;-78
2021/11/11 00:17:56;;;;;;;15.33;9.37;;;7.90;99.90;;;;;;5038961;28;20458;-80
2021/11/11 00:20:27;;;;;;;16.07;9.13;;;8.00;99.90;;;;;;5046497;28;20473;-79
2021/11/11 00:22:57;;;;;;;18.53;11.50;;;7.90;99.90;;;;;;5036778;28;20503;-79
2021/11/11 00:25:29;;;;;;;17.30;10.53;;;7.90;99.90;;;;;;5036227;28;20948;-80
2021/11/11 00:27:58;;;;;;;18.53;10.90;;;7.80;99.90;;;;;;5044199;28;20813;-79
2021/11/11 00:30:27;;;;;;;18.80;11.17;;;7.90;99.90;;;;;;5045045;28;20556;-81
2021/11/11 00:32:56;;;;;;;17.80;10.10;;;7.90;99.90;;;;;;5039262;28;20809;-81
2021/11/11 00:35:27;;;;;;;15.80;11.13;;;7.90;99.90;;;;;;5047621;28;20957;-80
2021/11/11 00:37:57;;;;;;;17.90;10.97;;;7.70;99.90;;;;;;5047180;28;20456;-81
2021/11/11 00:40:29;;;;;;;16.57;10.20;;;7.50;99.90;;;;;;5040584;28;21050;-80
2021/11/11 00:42:57;;;;;;;18.90;10.37;;;7.60;99.90;;;;;;5040176;28;20458;-80
2021/11/11 00:45:26;;;;;;;14.00;9.47;;;7.90;99.90;;;;;;5038727;28;21005;-79
2021/11/11 00:47:55;;;;;;;16.00;10.63;;;7.70;99.90;;;;;;5049814;28;20531;-80
2021/11/11 00:50:28;;;;;;;17.30;9.53;;;7.70;99.90;;;;;;5046878;28;20483;-80
2021/11/11 00:52:56;;;;;;;15.50;10.33;;;7.70;99.90;;;;;;5043532;28;20448;-80
2021/11/11 00:55:24;;;;;;;18.20;10.97;;;7.80;99.90;;;;;;5037685;28;21097;-79
2021/11/11 00:57:54;;;;;;;20.13;11.13;;;7.80;99.90;;;;;;5039099;28;20449;-80
2021/11/11 01:00:23;;;;;;;18.47;10.53;;;7.80;99.90;;;;;;5041844;28;20479;-81
2021/11/11 01:02:52;;;;;;;11.80;9.00;;;7.80;99.90;;;;;;5043032;28;20463;-80
2021/11/11 01:05:21;;;;;;;14.33;9.47;;;7.80;99.90;;;;;;5045612;28;20945;-79
2021/11/11 01:07:52;;;;;;;12.10;8.87;;;7.80;99.90;;;;;;5034969;28;20453;-80
2021/11/11 01:10:21;;;;;;;18.47;8.80;;;7.70;99.90;;;;;;5039479;28;20519;-81
2021/11/11 01:12:51;;;;;;;14.53;7.27;;;7.70;99.90;;;;;;5041858;28;20478;-79
2021/11/11 01:15:26;;;;;;;16.07;8.10;;;7.60;99.90;;;;;;5035465;28;21150;-79
2021/11/11 01:17:54;;;;;;;15.30;9.47;;;7.60;99.90;;;;;;5053936;28;20457;-81
2021/11/11 01:20:23;;;;;;;14.20;9.67;;;7.60;99.90;;;;;;5038056;28;20464;-81
2021/11/11 01:22:53;;;;;;;15.23;9.70;;;7.60;99.90;;;;;;5041776;28;20454;-81
2021/11/11 01:25:25;;;;;;;15.73;8.13;;;7.60;99.90;;;;;;5048997;28;20987;-80
2021/11/11 01:27:54;;;;;;;11.60;7.30;;;7.80;99.90;;;;;;5043074;28;20457;-80
2021/11/11 01:30:24;;;;;;;13.53;8.93;;;7.60;99.90;;;;;;5045601;28;20975;-80
2021/11/11 01:32:52;;;;;;;15.27;9.23;;;7.40;99.90;;;;;;5054094;28;21057;-79
2021/11/11 01:35:21;;;;;;;11.40;7.77;;;7.40;99.90;;;;;;5059603;28;20454;-79
2021/11/11 01:37:49;;;;;;;11.80;8.87;;;7.50;99.90;;;;;;5044364;28;20828;-80
2021/11/11 01:40:19;;;;;;;15.03;10.33;;;7.60;99.90;;;;;;5047520;28;21012;-80
2021/11/11 01:42:49;;;;;;;15.50;8.40;;;7.60;99.90;;;;;;5041201;28;20517;-79
2021/11/11 01:45:18;;;;;;;11.30;8.13;;;7.60;99.90;;;;;;5043375;28;20984;-82
2021/11/11 01:47:48;;;;;;;10.83;7.93;;;7.50;99.90;;;;;;5033784;28;20455;-80
2021/11/11 01:50:16;;;;;;;15.30;9.40;;;7.50;99.90;;;;;;5023521;28;21036;-80
2021/11/11 01:52:45;;;;;;;13.00;8.50;;;7.50;99.90;;;;;;5042355;28;20988;-81
2021/11/11 01:55:13;;;;;;;8.93;7.70;;;7.50;99.90;;;;;;5040806;28;20524;-80
2021/11/11 01:57:43;;;;;;;10.80;8.37;;;7.50;99.90;;;;;;5042402;28;20470;-81
2021/11/11 02:00:14;;;;;;;14.07;8.60;;;7.40;99.90;;;;;;5036102;28;21101;-81
2021/11/11 02:02:43;;;;;;;12.47;7.57;;;7.50;99.90;;;;;;5046953;28;21324;-82
2021/11/11 02:05:12;;;;;;;8.83;7.47;;;7.40;99.90;;;;;;5041874;28;21130;-82
2021/11/11 02:07:41;;;;;;;14.50;8.30;;;7.40;99.90;;;;;;5044966;28;20844;-82
2021/11/11 02:10:11;;;;;;;13.43;7.60;;;7.40;99.90;;;;;;5049105;28;20508;-83
2021/11/11 02:12:39;;;;;;;11.87;7.60;;;7.40;99.90;;;;;;5046687;28;20471;-81
2021/11/11 02:15:10;;;;;;;11.10;7.20;;;7.30;99.90;;;;;;5041840;28;20556;-82
2021/11/11 02:17:38;;;;;;;13.27;7.90;;;7.20;99.90;;;;;;5036066;28;20452;-82
2021/11/11 02:20:11;;;;;;;13.40;7.87;;;7.20;99.90;;;;;;5039741;28;21206;-81
2021/11/11 02:22:40;;;;;;;10.60;7.87;;;7.20;99.90;;;;;;5047923;28;20523;-82
2021/11/11 02:25:09;;;;;;;13.57;7.17;;;7.20;99.90;;;;;;5048798;28;20467;-82
2021/11/11 02:27:38;;;;;;;13.03;7.47;;;7.30;99.90;;;;;;5049986;28;20531;-82
2021/11/11 02:30:09;;;;;;;12.30;7.73;;;7.30;99.90;;;;;;5044354;28;20569;-80
2021/11/11 02:32:38;;;;;;;10.93;7.60;;;7.30;99.90;;;;;;5040222;28;20591;-81
2021/11/11 02:35:10;;;;;;;13.43;7.50;;;7.20;99.90;;;;;;5043962;28;20526;-82
2021/11/11 02:37:40;;;;;;;13.80;8.10;;;7.20;99.90;;;;;;5039360;28;20452;-80
2021/11/11 02:40:11;;;;;;;13.57;8.13;;;7.20;99.90;;;;;;5043222;28;21045;-81
2021/11/11 02:42:42;;;;;;;8.07;6.57;;;7.30;99.90;;;;;;5044679;28;20484;-81
2021/11/11 02:45:13;;;;;;;12.57;7.43;;;7.10;99.90;;;;;;5031976;28;20540;-81
2021/11/11 02:47:42;;;;;;;16.00;8.27;;;7.00;99.90;;;;;;5033102;28;20461;-80
2021/11/11 02:50:13;;;;;;;11.03;7.23;;;7.10;99.90;;;;;;5040121;28;20492;-81
2021/11/11 02:52:42;;;;;;;8.80;6.70;;;7.10;99.90;;;;;;5040335;28;20797;-81
2021/11/11 02:55:12;;;;;;;15.27;8.00;;;7.10;99.90;;;;;;5043651;28;20454;-80
2021/11/11 02:57:42;;;;;;;12.70;7.77;;;7.00;99.90;;;;;;5044923;28;20458;-81
2021/11/11 03:00:15;;;;;;;13.23;7.87;;;7.00;99.90;;;;;;5037988;28;20476;-81
2021/11/11 03:02:46;;;;;;;13.93;8.60;;;7.10;99.90;;;;;;5043039;28;20471;-80
2021/11/11 03:05:19;;;;;;;16.70;8.80;;;7.20;99.90;;;;;;5042494;28;20828;-80
2021/11/11 03:07:47;;;;;;;11.10;7.53;;;7.30;99.90;;;;;;5060869;28;20460;-79
2021/11/11 03:10:18;;;;;;;11.60;7.20;;;7.20;99.90;;;;;;5040303;28;20498;-81
2021/11/11 03:12:49;;;;;;;10.83;7.03;;;7.20;99.90;;;;;;5047229;28;20783;-79
2021/11/11 03:15:19;;;;;;;10.70;7.03;;;7.10;99.90;;;;;;5037528;28;20934;-79
2021/11/11 03:17:48;;;;;;;11.17;7.10;;;7.20;99.90;;;;;;5044475;28;20906;-80
2021/11/11 03:20:18;;;;;;;11.50;8.17;;;7.10;99.90;;;;;;5047619;28;21099;-80
2021/11/11 03:22:47;;;;;;;11.90;7.77;;;7.00;99.90;;;;;;5045495;28;20448;-80
2021/11/11 03:25:20;;;;;;;12.80;7.67;;;7.00;99.90;;;;;;5038122;28;20449;-81
2021/11/11 03:27:50;;;;;;;15.83;8.43;;;7.00;99.90;;;;;;5041724;28;20468;-81
2021/11/11 03:30:21;;;;;;;10.37;8.13;;;7.10;99.90;;;;;;5040436;28;20507;-81
2021/11/11 03:32:51;;;;;;;10.80;8.40;;;7.00;99.90;;;;;;5052046;28;20462;-79
2021/11/11 03:35:21;;;;;;;8.53;7.70;;;7.00;99.90;;;;;;5038348;28;20453;-81
2021/11/11 03:37:51;;;;;;;9.60;6.63;;;7.00;99.90;;;;;;5045337;28;20460;-80
2021/11/11 03:40:26;;;;;;;10.87;7.30;;;6.80;99.90;;;;;;5039778;28;20489;-80
2021/11/11 03:42:55;;;;;;;7.30;6.00;;;6.80;99.90;;;;;;5047560;28;20551;-79
2021/11/11 03:45:24;;;;;;;11.43;6.93;;;6.80;99.90;;;;;;5044779;28;20452;-81
2021/11/11 03:47:53;;;;;;;9.13;7.10;;;6.80;99.90;;;;;;5044526;28;21019;-80
2021/11/11 03:50:23;;;;;;;15.70;7.00;;;6.90;99.90;;;;;;5039270;28;20919;-81
2021/11/11 03:52:52;;;;;;;10.40;7.17;;;6.90;99.90;;;;;;5041647;28;20988;-81
2021/11/11 03:55:23;;;;;;;11.73;6.87;;;6.80;99.90;;;;;;5049373;28;20457;-79
2021/11/11 03:57:52;;;;;;;10.60;7.27;;;6.90;99.90;;;;;;5042252;28;20539;-79
2021/11/11 04:00:21;;;;;;;10.37;7.30;;;7.00;99.90;;;;;;5043066;28;20573;-80
2021/11/11 04:02:50;;;;;;;7.67;6.43;;;7.10;99.90;;;;;;5044396;28;20445;-79
2021/11/11 04:05:19;;;;;;;9.00;7.03;;;7.10;99.90;;;;;;5046024;28;20448;-79
2021/11/11 04:07:49;;;;;;;11.80;8.00;;;7.20;99.90;;;;;;5036838;28;20521;-79
2021/11/11 04:10:18;;;;;;;9.80;6.50;;;7.20;99.90;;;;;;5045397;28;20495;-81
2021/11/11 04:12:58;;;;;;;8.47;6.03;;;7.10;99.90;;;;;;5039884;28;20457;-77
2021/11/11 04:15:27;;;;;;;8.07;7.03;;;7.10;99.90;;;;;;5046988;28;20543;-80
2021/11/11 04:17:55;;;;;;;8.70;6.63;;;7.00;99.90;;;;;;5038502;28;20452;-79
2021/11/11 04:20:24;;;;;;;8.10;7.23;;;6.90;99.90;;;;;;5049495;28;20521;-82
2021/11/11 04:22:55;;;;;;;12.90;7.97;;;6.90;99.90;;;;;;5041604;28;20493;-79
2021/11/11 04:25:28;;;;;;;12.33;7.80;;;6.90;99.90;;;;;;5042211;28;20862;-81
2021/11/11 04:28:01;;;;;;;10.60;7.10;;;6.90;99.90;;;;;;5039039;28;20495;-80
2021/11/11 04:30:30;;;;;;;11.33;6.73;;;6.80;99.90;;;;;;5046811;28;20477;-80
2021/11/11 04:33:00;;;;;;;10.17;7.20;;;6.90;99.90;;;;;;5044072;28;20539;-81
2021/11/11 04:35:29;;;;;;;11.20;7.23;;;6.70;99.90;;;;;;5041006;28;20461;-79
2021/11/11 04:38:03;;;;;;;10.37;6.80;;;6.80;99.90;;;;;;5043266;28;20456;-79
2021/11/11 04:49:29;;;;;;;7.80;5.73;;;6.80;99.90;;;;;;5046390;28;20526;-79
2021/11/11 05:00:46;;;;;;;14.07;7.67;;;6.60;99.90;;;;;;5044507;28;20519;-79
2021/11/11 05:06:01;;;;;;;12.30;7.80;;;6.40;99.90;;;;;;5045180;28;20463;-77
2021/11/11 05:08:30;;;;;;;12.40;7.67;;;6.60;99.90;;;;;;5040668;28;20503;-77
2021/11/11 05:11:02;;;;;;;8.70;7.40;;;6.80;99.90;;;;;;5035007;28;20484;-77
2021/11/11 05:13:31;;;;;;;9.37;7.23;;;6.80;99.90;;;;;;5042295;28;20445;-78
2021/11/11 05:15:59;;;;;;;9.80;7.90;;;6.70;99.90;;;;;;5041040;28;20514;-78
2021/11/11 05:18:28;;;;;;;13.50;7.80;;;6.80;99.90;;;;;;5028864;28;20457;-78
2021/11/11 05:21:00;;;;;;;11.53;6.77;;;6.70;99.90;;;;;;5041472;28;20480;-78
2021/11/11 05:23:29;;;;;;;12.80;7.77;;;6.70;99.90;;;;;;5043100;28;20460;-79
2021/11/11 05:25:59;;;;;;;6.90;6.30;;;6.70;99.90;;;;;;5041808;28;20456;-81
2021/11/11 05:28:27;;;;;;;8.90;7.47;;;6.70;99.90;;;;;;5040250;28;21198;-79
2021/11/11 05:30:55;;;;;;;13.00;8.30;;;6.70;99.90;;;;;;5037509;28;20578;-78
2021/11/11 05:33:24;;;;;;;10.50;7.50;;;6.70;99.90;;;;;;5037824;28;20539;-82
2021/11/11 05:35:52;;;;;;;9.97;8.03;;;6.80;99.90;;;;;;5041646;28;20989;-81
2021/11/11 05:38:20;;;;;;;11.83;7.63;;;6.80;99.90;;;;;;5032885;28;20452;-79
2021/11/11 05:40:49;;;;;;;15.50;9.13;;;6.80;99.90;;;;;;5039138;28;20471;-78
2021/11/11 05:43:23;;;;;;;8.83;7.87;;;6.80;99.90;;;;;;5032347;28;20488;-82
2021/11/11 05:45:51;;;;;;;10.73;7.67;;;6.80;99.90;;;;;;5034580;28;20440;-80
2021/11/11 05:48:20;;;;;;;16.90;8.23;;;6.80;99.90;;;;;;5042742;28;20947;-81
2021/11/11 05:50:48;;;;;;;12.60;8.43;;;6.80;99.90;;;;;;5036301;28;20536;-79
2021/11/11 05:53:16;;;;;;;12.00;8.10;;;6.70;99.90;;;;;;5043336;28;20547;-79
2021/11/11 05:55:45;;;;;;;14.97;7.70;;;6.60;99.90;;;;;;5043294;28;20963;-79
2021/11/11 05:58:13;;;;;;;12.53;7.23;;;6.70;99.90;;;;;;5038947;28;21030;-77
2021/11/11 06:00:43;;;;;;;13.00;8.07;;;6.70;99.90;;;;;;5043073;28;20476;-79
2021/11/11 06:03:12;;;;;;;11.30;7.73;;;6.70;99.90;;;;;;5033970;28;20931;-80
2021/11/11 06:05:40;;;;;;;15.30;8.23;;;6.70;99.90;;;;;;5039874;28;20555;-79
2021/11/11 06:08:09;;;;;;;12.67;7.63;;;6.70;99.90;;;;;;5040228;28;20447;-79
2021/11/11 06:10:37;;;;;;;7.77;6.70;;;6.60;99.90;;;;;;5038889;28;20517;-79
2021/11/11 06:13:05;;;;;;;11.43;6.80;;;6.50;99.90;;;;;;5039492;28;21004;-79
2021/11/11 06:15:34;;;;;;;11.60;7.40;;;6.60;99.90;;;;;;5033489;28;20471;-78
2021/11/11 06:18:03;;;;;;;9.40;6.50;;;6.60;99.90;;;;;;5044381;28;20502;-80
2021/11/11 06:20:33;;;;;;;10.43;6.30;;;6.60;99.90;;;;;;5034894;28;20491;-79
2021/11/11 06:23:01;;;;;;;18.70;8.23;;;6.60;99.90;;;;;;5038210;28;20457;-79
2021/11/11 06:25:30;;;;;;;11.10;7.30;;;6.80;99.90;;;;;;5038625;28;20460;-78
2021/11/11 06:27:58;;;;;;;10.20;7.00;;;6.60;99.90;;;;;;5039681;28;20518;-79
2021/11/11 06:30:26;;;;;;;10.87;7.40;;;6.60;99.90;;;;;;5040064;28;21172;-79
2021/11/11 06:32:54;;;;;;;10.53;6.93;;;6.60;99.90;;;;;;5042359;28;21128;-80
2021/11/11 06:35:28;;;;;;;14.47;7.30;;;6.70;99.90;;;;;;5039906;28;20451;-79
2021/11/11 06:37:57;;;;;;;13.17;6.93;;;6.60;99.90;;;;;;5041723;28;20458;-79
2021/11/11 06:40:25;;;;;;;11.77;7.10;;;6.60;99.90;;;;;;5043006;28;20508;-81
2021/11/11 06:42:55;;;;;;;13.27;7.93;;;6.60;99.90;;;;;;5034787;28;20476;-80
2021/11/11 06:45:24;;;;;;;11.30;8.00;;;6.60;99.90;;;;;;5033205;28;20439;-79
2021/11/11 06:47:53;;;;;;;10.03;6.63;;;6.60;99.90;;;;;;5043700;28;20459;-80
2021/11/11 06:50:21;;;;;;;11.57;7.57;;;6.60;99.90;;;;;;5044962;28;20463;-81
2021/11/11 06:52:51;;;;;;;8.53;6.73;;;6.70;99.90;;;;;;5044837;28;20484;-81
2021/11/11 06:55:21;;;;;;;14.23;7.73;;;6.70;99.90;;;;;;5047573;28;20456;-80
2021/11/11 06:57:49;;;;;;;9.10;6.90;;;6.70;99.90;;;;;;5043214;28;20443;-80
2021/11/11 07:00:18;;;;;;;9.13;6.73;;;6.70;99.90;;;;;;5041254;28;20562;-81
2021/11/11 07:02:47;;;;;;;7.53;6.73;;;6.70;99.90;;;;;;5047821;28;20506;-79
2021/11/11 07:05:16;;;;;;;16.80;8.70;;;6.70;99.90;;;;;;5039558;28;20514;-81
2021/11/11 07:07:44;;;;;;;12.47;8.53;;;6.80;99.90;;;;;;5049612;28;20547;-80
2021/11/11 07:10:14;;;;;;;15.40;10.20;;;6.80;99.90;;;;;;5041647;28;20490;-81
2021/11/11 07:12:44;;;;;;;18.73;11.07;;;6.80;99.90;;;;;;5045069;28;20481;-82
2021/11/11 07:15:15;;;;;;;15.07;9.73;;;6.60;99.90;;;;;;5038995;28;20451;-81
2021/11/11 07:17:45;;;;;;;19.47;11.43;;;6.90;99.90;;;;;;5053283;28;20439;-82
2021/11/11 07:20:15;;;;;;;19.70;11.10;;;6.90;99.90;;;;;;5044310;28;20974;-83
2021/11/11 07:22:45;;;;;;;19.37;10.40;;;6.90;99.90;;;;;;5053231;28;20465;-80
2021/11/11 07:25:17;;;;;;;16.93;10.63;;;6.90;99.90;;;;;;5042215;28;21176;-82
2021/11/11 07:27:46;;;;;;;11.80;8.50;;;6.90;99.90;;;;;;5039748;28;20460;-82
2021/11/11 07:30:16;;;;;;;16.43;8.70;;;7.00;99.90;;;;;;5048749;28;20864;-82
2021/11/11 07:32:46;;;;;;;17.50;9.93;;;7.00;99.90;;;;;;5052275;28;21069;-81
2021/11/11 07:35:14;;;;;;;9.27;7.67;;;7.20;99.90;;;;;;5045081;28;20474;-81
2021/11/11 07:37:45;;;;;;;13.07;9.13;;;7.10;99.90;;;;;;5040374;28;20490;-81
2021/11/11 07:40:17;;;;;;;14.93;7.87;;;7.20;99.90;;;;;;5046618;28;20467;-81
2021/11/11 07:42:46;;;;;;;10.47;7.37;;;7.30;99.90;;;;;;5049820;28;20457;-81
2021/11/11 07:45:18;;;;;;;9.93;7.50;;;7.40;99.90;;;;;;5045172;28;20551;-82
2021/11/11 07:47:47;;;;;;;12.20;9.53;;;7.60;99.90;;;;;;5044644;28;20552;-82
2021/11/11 07:50:15;;;;;;;11.90;8.00;;;7.40;99.90;;;;;;5047377;28;20475;-82
2021/11/11 07:52:46;;;;;;;10.70;7.73;;;7.40;99.90;;;;;;5043546;28;20988;-83
2021/11/11 07:55:16;;;;;;;12.40;8.33;;;7.40;99.90;;;;;;5051527;28;20541;-83
2021/11/11 07:57:45;;;;;;;8.63;7.30;;;7.50;99.90;;;;;;5046582;28;20959;-83
2021/11/11 08:00:15;;;;;;;11.10;7.63;;;7.60;99.90;;;;;;5044830;28;20479;-83
2021/11/11 08:02:44;;;;;;;9.70;8.03;;;7.60;99.90;;;;;;5050510;28;20962;-82
2021/11/11 08:05:15;;;;;;;10.03;7.33;;;7.60;99.90;;;;;;5048291;28;20537;-83
2021/11/11 08:07:44;;;;;;;10.60;6.60;;;7.60;99.90;;;;;;5045704;28;20607;-84
2021/11/11 08:10:13;;;;;;;12.73;7.57;;;7.80;99.90;;;;;;5050629;28;20999;-83
2021/11/11 08:12:43;;;;;;;8.90;6.60;;;7.80;99.90;;;;;;5047255;28;20481;-83
2021/11/11 08:15:13;;;;;;;11.23;7.40;;;7.80;99.90;;;;;;5034029;28;20476;-82
2021/11/11 08:17:43;;;;;;;11.53;6.30;;;7.90;99.90;;;;;;5043157;28;20554;-84
2021/11/11 08:20:13;;;;;;;12.40;8.23;;;8.00;99.90;;;;;;5038989;28;20877;-83
2021/11/11 08:22:42;;;;;;;8.70;7.47;;;7.90;99.90;;;;;;5049494;28;20481;-83
2021/11/11 08:25:12;;;;;;;11.40;8.07;;;8.00;99.90;;;;;;5046165;28;20454;-83
2021/11/11 08:27:43;;;;;;;13.90;8.40;;;8.10;99.90;;;;;;5046789;28;20458;-84
2021/11/11 08:30:14;;;;;;;14.00;7.40;;;8.20;99.90;;;;;;5043837;28;20886;-83
2021/11/11 08:32:44;;;;;;;13.80;8.03;;;8.20;99.90;;;;;;5049934;28;20506;-82
2021/11/11 08:35:14;;;;;;;12.40;7.07;;;8.40;99.90;;;;;;5047141;28;21211;-83
2021/11/11 08:37:45;;;;;;;10.77;7.17;;;8.60;99.90;;;;;;5041348;28;20457;-83
2021/11/11 08:40:14;;;;;;;9.43;6.03;;;8.60;99.90;;;;;;5041986;28;20487;-83
2021/11/11 08:42:45;;;;;;;9.60;6.57;;;8.70;99.90;;;;;;5064962;28;20446;-83
2021/11/11 08:45:14;;;;;;;8.90;6.70;;;8.70;99.90;;;;;;5040415;28;20444;-81
2021/11/11 08:47:44;;;;;;;16.20;6.97;;;8.80;99.90;;;;;;5043276;28;20473;-82
2021/11/11 08:50:13;;;;;;;11.97;7.40;;;8.90;99.90;;;;;;5050732;28;21000;-82
2021/11/11 08:52:45;;;;;;;8.50;7.13;;;9.00;99.90;;;;;;5044373;28;20474;-83
2021/11/11 08:55:14;;;;;;;8.63;5.47;;;9.20;99.90;;;;;;5048264;28;20498;-82
2021/11/11 08:57:45;;;;;;;14.40;6.40;;;9.30;99.90;;;;;;5050078;28;20465;-81
2021/11/11 09:00:17;;;;;;;13.43;6.93;;;9.30;99.90;;;;;;5041300;28;21154;-80
2021/11/11 09:02:49;;;;;;;11.07;7.00;;;9.40;99.90;;;;;;5055141;28;20463;-81
2021/11/11 09:05:18;;;;;;;9.90;6.03;;;9.50;99.90;;;;;;5033487;28;20479;-80
2021/11/11 09:07:47;;;;;;;10.77;6.50;;;9.50;99.90;;;;;;5039334;28;20494;-81
2021/11/11 09:10:19;;;;;;;11.90;6.40;;;9.50;99.90;;;;;;5041325;28;20548;-81
2021/11/11 09:12:51;;;;;;;10.83;8.70;;;9.60;99.90;;;;;;5046480;28;20554;-82
2021/11/11 09:15:23;;;;;;;12.23;7.70;;;9.70;99.90;;;;;;5037938;28;21390;-82
2021/11/11 09:17:52;;;;;;;13.47;7.50;;;9.80;99.90;;;;;;5049379;28;20443;-83
2021/11/11 09:20:21;;;;;;;11.10;7.50;;;9.90;99.90;;;;;;5045702;28;20521;-80
2021/11/11 09:22:51;;;;;;;12.27;8.00;;;9.90;99.90;;;;;;5050397;28;20451;-82
2021/11/11 09:25:19;;;;;;;10.83;7.53;;;10.00;99.90;;;;;;5049659;28;20458;-81
2021/11/11 09:27:49;;;;;;;10.27;6.50;;;10.20;99.90;;;;;;5043344;28;20475;-82
2021/11/11 09:30:21;;;;;;;11.20;7.60;;;10.30;99.90;;;;;;5046354;28;20572;-81
2021/11/11 09:32:50;;;;;;;8.07;6.20;;;10.30;99.90;;;;;;5040615;28;20502;-81
2021/11/11 09:35:19;;;;;;;12.10;7.47;;;10.40;99.90;;;;;;5044790;28;21048;-84
2021/11/11 09:37:49;;;;;;;11.97;7.13;;;10.60;99.90;;;;;;5044557;28;20491;-83
2021/11/11 09:40:22;;;;;;;20.00;7.53;;;10.80;99.90;;;;;;5044971;28;20488;-82
2021/11/11 09:42:52;;;;;;;8.47;6.40;;;10.90;99.90;;;;;;5045858;28;20488;-82
2021/11/11 09:45:24;;;;;;;11.90;6.43;;;11.10;99.90;;;;;;5045851;28;20475;-83
2021/11/11 09:47:54;;;;;;;13.40;7.23;;;11.20;99.90;;;;;;5040267;28;20498;-83
2021/11/11 09:50:26;;;;;;;13.20;7.97;;;11.30;99.90;;;;;;5049887;28;20469;-84
2021/11/11 09:52:55;;;;;;;10.07;7.67;;;11.50;99.90;;;;;;5049385;28;20456;-82
2021/11/11 10:01:01;;;;;;;12.23;7.27;;;11.80;99.90;;;;;;5036809;28;20617;-81
2021/11/11 10:03:30;;;;;;;11.47;8.80;;;11.80;99.90;;;;;;5044039;28;20984;-82
2021/11/11 10:05:58;;;;;;;11.73;8.17;;;11.90;99.90;;;;;;5038349;28;20569;-80
2021/11/11 10:08:36;;;;;;;13.73;8.20;;;11.90;99.90;;;;;;5040894;28;20460;-79
2021/11/11 10:11:09;;;;;;;11.27;8.33;;;12.10;99.90;;;;;;5043711;28;20482;-83
2021/11/11 10:13:40;;;;;;;13.40;8.10;;;12.20;99.90;;;;;;5043831;28;20465;-82
2021/11/11 10:16:12;;;;;;;10.73;7.37;;;12.30;99.90;;;;;;5047299;28;20472;-81
2021/11/11 10:18:47;;;;;;;12.30;8.70;;;12.40;99.90;;;;;;5049315;28;20542;-81
2021/11/11 10:21:27;;;;;;;14.70;9.20;;;12.50;99.90;;;;;;5042765;28;20519;-82
2021/11/11 10:23:59;;;;;;;11.40;6.90;;;12.70;99.90;;;;;;5044275;28;20459;-82
2021/11/11 10:26:37;;;;;;;14.20;9.33;;;12.90;99.90;;;;;;5053184;28;20465;-82
2021/11/11 10:29:19;;;;;;;10.50;8.20;;;13.10;99.90;;;;;;5047914;28;20907;-82
2021/11/11 10:31:52;;;;;;;8.70;6.60;;;13.20;99.90;;;;;;5039175;28;20554;-83
2021/11/11 10:34:21;;;;;;;11.50;8.40;;;13.50;99.90;;;;;;5042370;28;20495;-83
2021/11/11 10:36:51;;;;;;;11.37;7.70;;;13.60;99.90;;;;;;5025476;28;20878;-81
2021/11/11 10:39:24;;;;;;;15.93;8.30;;;13.70;99.90;;;;;;5046032;28;20458;-80
2021/11/11 10:41:54;;;;;;;10.27;7.10;;;13.90;99.90;;;;;;5046432;28;21031;-81
2021/11/11 10:44:27;;;;;;;12.17;7.63;;;14.00;99.90;;;;;;5035460;28;20447;-82
2021/11/11 10:46:58;;;;;;;10.13;8.20;;;14.10;99.90;;;;;;5045339;28;20479;-82
2021/11/11 10:49:31;;;;;;;9.93;7.60;;;14.30;99.90;;;;;;5031889;28;20562;-81
2021/11/11 10:52:23;;;;;;;11.20;8.73;;;14.40;99.90;;;;;;5043097;28;20465;-81
2021/11/11 10:55:19;;;;;;;18.17;10.43;;;14.60;99.90;;;;;;5045103;28;20705;-82
2021/11/11 10:57:51;;;;;;;11.13;8.03;;;14.80;99.90;;;;;;5049527;28;20892;-82
2021/11/11 11:00:33;;;;;;;11.20;8.30;;;15.00;99.90;;;;;;5042144;28;21043;-76
2021/11/11 11:03:05;;;;;;;11.83;7.97;;;15.10;99.90;;;;;;5045090;28;20484;-76
2021/11/11 11:05:38;;;;;;;12.93;8.47;;;15.20;99.90;;;;;;5041409;28;20965;-76
2021/11/11 11:08:10;;;;;;;12.60;8.80;;;15.20;99.90;;;;;;5036480;28;20454;-76
2021/11/11 11:10:42;;;;;;;18.03;13.03;;;15.20;99.90;;;;;;5043137;28;20984;-75
2021/11/11 11:13:13;;;;;;;14.03;9.97;;;15.10;99.90;;;;;;5044688;28;20978;-76
2021/11/11 11:15:51;;;;;;;11.30;9.30;;;14.90;99.90;;;;;;5040493;28;20495;-77
2021/11/11 11:18:24;;;;;;;17.57;10.23;;;14.90;99.90;;;;;;5041404;28;20465;-82
2021/11/11 11:20:57;;;;;;;15.20;9.70;;;14.80;99.90;;;;;;5043588;28;20494;-81
2021/11/11 11:23:29;;;;;;;15.20;9.63;;;14.80;99.90;;;;;;5044199;28;21050;-81
2021/11/11 11:26:10;;;;;;;15.93;9.70;;;14.70;99.90;;;;;;5049190;28;20459;-81
2021/11/11 11:28:47;;;;;;;11.60;8.40;;;14.70;99.90;;;;;;5048300;28;21008;-80
2021/11/11 11:31:27;;;;;;;15.47;9.50;;;14.60;99.90;;;;;;5060985;28;20525;-82
2021/11/11 11:33:57;;;;;;;14.93;10.30;;;14.60;99.90;;;;;;5058212;28;20475;-82
2021/11/11 11:36:34;;;;;;;13.50;9.60;;;14.60;99.90;;;;;;5053020;28;20495;-83
2021/11/11 11:39:06;;;;;;;13.10;8.80;;;14.70;99.90;;;;;;5052027;28;20959;-84
2021/11/11 11:41:38;;;;;;;15.30;8.53;;;14.90;99.90;;;;;;5046157;28;20481;-84
2021/11/11 11:44:31;;;;;;;16.37;9.07;;;14.70;99.90;;;;;;5044707;28;20485;-84
2021/11/11 11:47:12;;;;;;;13.63;8.40;;;14.80;99.90;;;;;;5044419;28;20469;-81
2021/11/11 11:49:42;;;;;;;13.40;9.40;;;14.70;99.90;;;;;;5056950;28;20486;-82
2021/11/11 11:52:13;;;;;;;12.27;8.33;;;14.80;99.90;;;;;;5053227;28;20439;-81
2021/11/11 11:54:57;;;;;;;13.83;9.03;;;14.80;99.90;;;;;;5051967;28;20458;-76
2021/11/11 11:57:34;;;;;;;13.77;10.57;;;14.80;99.90;;;;;;5038972;28;20567;-76
2021/11/11 12:00:10;;;;;;;11.70;8.50;;;14.80;99.90;;;;;;5038360;28;20490;-77
2021/11/11 12:02:56;;;;;;;21.03;9.73;;;14.90;99.90;;;;;;5040481;28;20451;-77
2021/11/11 12:08:27;;;;;;;15.83;9.60;;;14.90;99.90;;;;;;5041532;28;20455;-76
2021/11/11 12:11:30;;;;;;;14.53;9.50;;;14.90;99.90;;;;;;5045887;28;20479;-77
2021/11/11 12:14:06;;;;;;;17.83;8.93;;;14.90;99.90;;;;;;5030333;28;20461;-77
2021/11/11 12:16:47;;;;;;;9.97;8.20;;;14.90;99.90;;;;;;5046889;28;20459;-76
2021/11/11 12:39:45;;;;;;;32.83;14.97;;;15.10;99.90;;;;;;5044366;28;20482;-82
2021/11/11 12:42:30;;;;;;;15.27;11.13;;;15.10;99.90;;;;;;5036390;28;20511;-82
2021/11/11 12:45:19;;;;;;;13.17;9.50;;;15.10;99.90;;;;;;5034303;28;20465;-82
2021/11/11 12:47:50;;;;;;;18.07;11.27;;;15.20;99.90;;;;;;5044607;28;20474;-81
2021/11/11 12:50:45;;;;;;;13.40;10.10;;;15.20;99.90;;;;;;5037755;28;21010;-81
2021/11/11 12:53:33;;;;;;;13.77;8.87;;;15.20;99.90;;;;;;5041624;28;20455;-80
2021/11/11 12:56:25;;;;;;;10.50;9.20;;;15.30;99.90;;;;;;5044241;28;20519;-80
2021/11/11 12:59:02;;;;;;;13.77;9.53;;;15.30;99.90;;;;;;5045271;28;20936;-82
2021/11/11 13:01:33;;;;;;;16.37;10.17;;;15.30;99.90;;;;;;5037248;28;20475;-81
2021/11/11 13:04:16;;;;;;;14.67;10.63;;;15.30;99.90;;;;;;5049079;28;20490;-81
2021/11/11 13:06:46;;;;;;;18.07;10.60;;;15.30;99.90;;;;;;5047550;28;20458;-81
2021/11/11 13:09:25;;;;;;;18.00;10.13;;;15.30;99.90;;;;;;5043871;28;20502;-81
2021/11/11 13:12:11;;;;;;;14.80;9.40;;;15.40;99.90;;;;;;5047459;28;20459;-81
2021/11/11 13:14:57;;;;;;;16.02;10.40;;;15.40;99.90;;;;;;5048062;28;20993;-81
2021/11/11 13:17:28;;;;;;;16.20;10.93;;;15.40;99.90;;;;;;5048069;28;20197;-81
2021/11/11 13:20:01;;;;;;;14.07;10.13;;;15.50;99.90;;;;;;5039741;28;20474;-80
2021/11/11 13:22:43;;;;;;;15.10;9.00;;;15.40;99.90;;;;;;5038899;28;20569;-80
2021/11/11 16:22:15;;;;;;;16.63;10.93;;;12.60;99.90;;;;;;5053643;28;20514;-78
2021/11/11 16:25:02;;;;;;;13.33;11.20;;;12.60;99.90;;;;;;5051429;28;20460;-81
2021/11/11 16:27:31;;;;;;;17.13;10.90;;;12.60;99.90;;;;;;5042647;28;20980;-81
2021/11/11 16:30:05;;;;;;;21.23;11.80;;;12.50;99.90;;;;;;5055617;28;20521;-81
2021/11/11 16:32:33;;;;;;;19.60;11.17;;;12.40;99.90;;;;;;5048237;28;20452;-81
2021/11/11 16:35:02;;;;;;;15.13;10.40;;;12.30;99.90;;;;;;5045685;28;20792;-81
2021/11/11 16:37:36;;;;;;;16.57;9.10;;;12.20;99.90;;;;;;5040953;28;20507;-82
2021/11/11 16:40:06;;;;;;;16.30;11.10;;;12.00;99.90;;;;;;5043498;28;21542;-81
2021/11/11 16:42:35;;;;;;;15.37;10.67;;;11.90;99.90;;;;;;5053554;28;20471;-81
2021/11/11 16:45:15;;;;;;;15.57;9.43;;;11.90;99.90;;;;;;5039985;28;20495;-81
2021/11/11 16:47:44;;;;;;;15.07;10.10;;;12.00;99.90;;;;;;5055243;28;20469;-81
2021/11/11 16:50:13;;;;;;;15.80;9.33;;;12.00;99.90;;;;;;5053691;28;20979;-80